CheckWX is a tool to help pilots better visualize weather data.  It is not intended as a substitute for an official pre-flight weather briefing.

20:10:14 UTC

EGLL TAF
London Heathrow Airport
London, United Kingdom
TAF EGLL 261652Z 2618/2724 05012KT 9999 SCT020 PROB40 TEMPO 2620/2623 BKN012 TEMPO 2623/2708 BKN012 PROB30 TEMPO 2712/2719 08015G25KT

Jun-26@
18:00 UTC

Jun-26 @ 18:00 UTC

Jun-28@
00:00 UTC

Jun-28 @ 00:00 UTC

TAF EGLL 261652Z 2618/2724 05012KT 9999 SCT020
Wind
  • 050° at 12 KTS
Cloud Levels
  • Scattered at 2,000' AGL

Jun-26@
20:00 UTC

Jun-26 @ 20:00 UTC

Jun-26@
23:00 UTC

Jun-26 @ 23:00 UTC

PROB40 TEMPO 2620/2623 BKN012

Temporary - 40% Likelihood

Temporary - 40% Likelihood during this time.

Cloud Levels
  • Broken at 1,200' AGL

Jun-26@
23:00 UTC

Jun-26 @ 23:00 UTC

Jun-27@
08:00 UTC

Jun-27 @ 08:00 UTC

TEMPO 2623/2708 BKN012

Temporary

Temporary Changes expected for less than half the time period

Cloud Levels
  • Broken at 1,200' AGL

Jun-27@
12:00 UTC

Jun-27 @ 12:00 UTC

Jun-27@
19:00 UTC

Jun-27 @ 19:00 UTC

PROB30 TEMPO 2712/2719 08015G25KT

Temporary - 30% Likelihood

Temporary - 30% Likelihood during this time.

Wind
  • 080° at 15 KTS
  • {Gusting to 25 KTS